Time;durP1;ratioP1;P1;durP2;ratioP2;P2;SDS_P1;SDS_P2;PMS_P1;PMS_P2;Temp;Humidity;BMP_temperature;BMP_pressure;BME280_temperature;BME280_humidity;BME280_pressure;Samples;Min_cycle;Max_cycle;Signal;HPM_P1;HPM_P2
2023/05/31 00:01:12;;;;;;;5.35;2.90;;;;;;;;;;5049141;28;20021;-74
2023/05/31 00:03:40;;;;;;;4.13;2.83;;;;;;;;;;5049353;28;20025;-74
2023/05/31 00:06:07;;;;;;;6.60;2.90;;;;;;;;;;5048981;28;20579;-74
2023/05/31 00:08:32;;;;;;;4.78;2.80;;;;;;;;;;5048824;28;20025;-74
2023/05/31 00:10:58;;;;;;;4.75;2.47;;;;;;;;;;5048804;28;20040;-74
2023/05/31 00:13:23;;;;;;;5.80;2.63;;;;;;;;;;5048733;28;20024;-75
2023/05/31 00:15:49;;;;;;;5.28;2.70;;;;;;;;;;5048992;28;20441;-75
2023/05/31 00:18:15;;;;;;;6.93;2.78;;;;;;;;;;5047568;28;20032;-74
2023/05/31 00:20:40;;;;;;;4.93;2.80;;;;;;;;;;5048850;28;20082;-74
2023/05/31 00:23:05;;;;;;;4.57;2.65;;;;;;;;;;5048586;28;20396;-74
2023/05/31 00:25:31;;;;;;;4.82;2.85;;;;;;;;;;5049008;28;20057;-75
2023/05/31 00:27:56;;;;;;;4.60;2.78;;;;;;;;;;5048717;28;20045;-74
2023/05/31 00:30:22;;;;;;;5.97;3.00;;;;;;;;;;5048475;28;20029;-74
2023/05/31 00:32:47;;;;;;;6.10;2.70;;;;;;;;;;5048584;28;20455;-75
2023/05/31 00:35:16;;;;;;;5.47;2.88;;;;;;;;;;5048798;28;20462;-75
2023/05/31 00:37:41;;;;;;;8.90;2.92;;;;;;;;;;5047974;28;20516;-74
2023/05/31 00:40:07;;;;;;;5.10;2.83;;;;;;;;;;5048764;28;20036;-74
2023/05/31 00:42:33;;;;;;;4.93;2.78;;;;;;;;;;5048711;28;20052;-74
2023/05/31 00:44:58;;;;;;;5.53;2.60;;;;;;;;;;5048793;28;20033;-74
2023/05/31 00:47:25;;;;;;;7.95;2.78;;;;;;;;;;5048292;28;20036;-74
2023/05/31 00:49:52;;;;;;;8.15;2.70;;;;;;;;;;5048199;28;20025;-75
2023/05/31 00:52:18;;;;;;;7.55;2.83;;;;;;;;;;5047999;28;20079;-75
2023/05/31 00:54:43;;;;;;;5.55;2.78;;;;;;;;;;5048444;28;20029;-74
2023/05/31 00:57:10;;;;;;;5.88;2.75;;;;;;;;;;5046704;28;20493;-74
2023/05/31 00:59:36;;;;;;;4.78;2.90;;;;;;;;;;5048529;28;20488;-74
2023/05/31 01:02:03;;;;;;;5.78;2.88;;;;;;;;;;5047224;28;20025;-75
2023/05/31 01:04:30;;;;;;;5.32;2.42;;;;;;;;;;5048637;28;20032;-74
2023/05/31 01:06:56;;;;;;;5.15;2.67;;;;;;;;;;5047642;28;20025;-75
2023/05/31 01:09:22;;;;;;;5.32;2.35;;;;;;;;;;5048116;28;20031;-74
2023/05/31 01:12:08;;;;;;;6.72;2.63;;;;;;;;;;5048452;28;20103;-74
2023/05/31 01:14:50;;;;;;;7.82;2.40;;;;;;;;;;5048522;28;20655;-74
2023/05/31 01:17:30;;;;;;;5.13;2.80;;;;;;;;;;5048651;28;20033;-74
2023/05/31 01:20:00;;;;;;;8.20;2.70;;;;;;;;;;5048122;28;20035;-74
2023/05/31 01:22:50;;;;;;;5.80;2.67;;;;;;;;;;5047713;28;20075;-75
2023/05/31 01:25:41;;;;;;;4.82;2.53;;;;;;;;;;5048218;28;20025;-74
2023/05/31 01:28:07;;;;;;;;;;;;;;;;;;5048439;28;20037;-75
2023/05/31 01:30:35;;;;;;;4.95;2.33;;;;;;;;;;5048226;28;20740;-75
2023/05/31 01:33:00;;;;;;;4.93;2.78;;;;;;;;;;5048124;28;20021;-74
2023/05/31 01:35:27;;;;;;;5.90;2.80;;;;;;;;;;5048574;28;20029;-74
2023/05/31 01:37:52;;;;;;;5.05;2.38;;;;;;;;;;5047325;28;20045;-74
2023/05/31 01:40:18;;;;;;;4.65;2.53;;;;;;;;;;5048372;28;20086;-74
2023/05/31 01:42:46;;;;;;;6.50;2.40;;;;;;;;;;5051611;28;20024;-74
2023/05/31 01:45:13;;;;;;;4.63;2.40;;;;;;;;;;5051709;28;20025;-74
2023/05/31 01:47:40;;;;;;;3.65;2.38;;;;;;;;;;5051556;28;20036;-74
2023/05/31 01:50:11;;;;;;;8.75;2.90;;;;;;;;;;5051460;28;20025;-74
2023/05/31 01:52:37;;;;;;;6.22;2.88;;;;;;;;;;5051364;28;20116;-75
2023/05/31 01:55:03;;;;;;;4.72;2.10;;;;;;;;;;5051561;28;20097;-75
2023/05/31 01:57:31;;;;;;;6.28;2.85;;;;;;;;;;5051453;28;20029;-75
2023/05/31 01:59:59;;;;;;;5.60;2.72;;;;;;;;;;5051111;28;20104;-74
2023/05/31 02:02:26;;;;;;;5.95;2.63;;;;;;;;;;5050018;28;20071;-74
2023/05/31 02:05:11;;;;;;;5.32;2.60;;;;;;;;;;5051288;28;20519;-74
2023/05/31 02:07:37;;;;;;;7.63;2.75;;;;;;;;;;5050721;28;20025;-74
2023/05/31 02:10:03;;;;;;;7.00;2.45;;;;;;;;;;5051169;28;20025;-74
2023/05/31 02:12:29;;;;;;;5.38;2.35;;;;;;;;;;5051225;28;20108;-74
2023/05/31 02:14:55;;;;;;;5.55;2.75;;;;;;;;;;5051112;28;20099;-74
2023/05/31 02:17:23;;;;;;;5.45;2.40;;;;;;;;;;5051155;28;20036;-74
2023/05/31 02:19:55;;;;;;;4.60;2.58;;;;;;;;;;5050608;28;20424;-74
2023/05/31 02:22:20;;;;;;;5.32;2.40;;;;;;;;;;5050769;28;20104;-74
2023/05/31 02:24:46;;;;;;;5.70;2.72;;;;;;;;;;5051005;28;20115;-75
2023/05/31 02:27:14;;;;;;;6.50;2.60;;;;;;;;;;5051073;28;20021;-75
2023/05/31 02:29:40;;;;;;;5.43;2.75;;;;;;;;;;5050995;28;20052;-74
2023/05/31 02:32:06;;;;;;;5.15;2.40;;;;;;;;;;5050669;28;20052;-74
2023/05/31 02:34:33;;;;;;;6.50;2.50;;;;;;;;;;5050650;28;20025;-75
2023/05/31 02:37:00;;;;;;;4.50;2.80;;;;;;;;;;5050304;28;20516;-74
2023/05/31 02:39:25;;;;;;;7.55;2.72;;;;;;;;;;5050397;28;20072;-74
2023/05/31 02:41:51;;;;;;;4.53;2.88;;;;;;;;;;5050500;28;20053;-74
2023/05/31 02:44:16;;;;;;;4.93;2.67;;;;;;;;;;5049102;28;20549;-74
2023/05/31 02:46:42;;;;;;;5.35;2.35;;;;;;;;;;5050731;28;20476;-74
2023/05/31 02:49:07;;;;;;;5.15;2.53;;;;;;;;;;5050202;28;20021;-74
2023/05/31 02:51:33;;;;;;;4.93;2.53;;;;;;;;;;5049387;28;20055;-74
2023/05/31 02:53:58;;;;;;;8.18;2.90;;;;;;;;;;5049659;28;20033;-75
2023/05/31 02:56:24;;;;;;;10.13;2.63;;;;;;;;;;5050281;28;20123;-74
2023/05/31 02:58:50;;;;;;;6.15;2.70;;;;;;;;;;5050155;28;20029;-74
2023/05/31 03:01:16;;;;;;;5.65;2.58;;;;;;;;;;5050259;28;20171;-74
2023/05/31 03:03:41;;;;;;;10.13;2.90;;;;;;;;;;5048757;28;20078;-75
2023/05/31 03:06:07;;;;;;;8.45;2.85;;;;;;;;;;5050322;28;20467;-74
2023/05/31 03:08:32;;;;;;;6.35;2.72;;;;;;;;;;5049397;28;20162;-74
2023/05/31 03:10:57;;;;;;;4.85;2.70;;;;;;;;;;5049970;28;20484;-74
2023/05/31 03:13:23;;;;;;;4.60;2.80;;;;;;;;;;5050224;28;20033;-74
2023/05/31 03:15:48;;;;;;;5.40;2.60;;;;;;;;;;5049916;28;20040;-75
2023/05/31 03:18:14;;;;;;;5.22;2.80;;;;;;;;;;5049931;28;20017;-74
2023/05/31 03:20:39;;;;;;;6.18;2.80;;;;;;;;;;5049734;28;20400;-74
2023/05/31 03:23:06;;;;;;;8.35;3.03;;;;;;;;;;5049746;28;20592;-74
2023/05/31 03:25:32;;;;;;;4.70;2.38;;;;;;;;;;5049750;28;20199;-74
2023/05/31 03:27:58;;;;;;;4.45;2.55;;;;;;;;;;5049907;28;20096;-74
2023/05/31 03:30:26;;;;;;;5.32;2.63;;;;;;;;;;5049648;28;20112;-74
2023/05/31 03:32:51;;;;;;;5.25;2.47;;;;;;;;;;5049558;28;20300;-74
2023/05/31 03:35:17;;;;;;;4.70;2.55;;;;;;;;;;5049538;28;20397;-74
2023/05/31 03:37:43;;;;;;;6.55;2.78;;;;;;;;;;5049220;28;20106;-74
2023/05/31 03:40:09;;;;;;;6.55;3.15;;;;;;;;;;5048321;28;20551;-74
2023/05/31 03:42:34;;;;;;;6.13;2.50;;;;;;;;;;5049450;28;20501;-74
2023/05/31 03:45:00;;;;;;;6.07;2.45;;;;;;;;;;5049329;28;20365;-74
2023/05/31 03:47:26;;;;;;;7.15;2.60;;;;;;;;;;5049365;28;20036;-73
2023/05/31 03:49:52;;;;;;;4.35;2.67;;;;;;;;;;5049106;28;20029;-74
2023/05/31 03:52:17;;;;;;;5.57;2.60;;;;;;;;;;5047484;28;20029;-74
2023/05/31 03:54:43;;;;;;;6.00;2.70;;;;;;;;;;5049065;28;20017;-73
2023/05/31 03:57:08;;;;;;;6.47;2.58;;;;;;;;;;5049473;28;20044;-74
2023/05/31 03:59:35;;;;;;;5.07;2.80;;;;;;;;;;5049081;28;20492;-74
2023/05/31 04:02:00;;;;;;;5.90;2.90;;;;;;;;;;5048959;28;20021;-74
2023/05/31 04:04:26;;;;;;;6.32;2.60;;;;;;;;;;5048676;28;20183;-74
2023/05/31 04:06:52;;;;;;;5.72;2.60;;;;;;;;;;5048871;28;20037;-74
2023/05/31 04:09:18;;;;;;;6.80;3.33;;;;;;;;;;5048859;28;20063;-74
2023/05/31 04:11:43;;;;;;;6.63;2.80;;;;;;;;;;5049071;28;20417;-74
2023/05/31 04:14:09;;;;;;;4.68;2.53;;;;;;;;;;5048816;28;20788;-74
2023/05/31 04:16:34;;;;;;;4.93;2.70;;;;;;;;;;5049112;28;20098;-74
2023/05/31 04:18:59;;;;;;;7.38;2.58;;;;;;;;;;5048971;28;20031;-74
2023/05/31 04:21:27;;;;;;;6.28;2.60;;;;;;;;;;5048308;28;20090;-74
2023/05/31 04:23:53;;;;;;;6.13;2.70;;;;;;;;;;5048837;28;20021;-74
2023/05/31 04:26:18;;;;;;;7.80;2.72;;;;;;;;;;5048583;28;20060;-74
2023/05/31 04:28:44;;;;;;;5.05;2.53;;;;;;;;;;5048995;28;20028;-74
2023/05/31 04:31:11;;;;;;;5.38;2.88;;;;;;;;;;5048495;28;20028;-74
2023/05/31 04:33:38;;;;;;;6.50;2.85;;;;;;;;;;5048864;28;20040;-74
2023/05/31 04:36:04;;;;;;;11.63;2.78;;;;;;;;;;5048628;28;20047;-74
2023/05/31 04:38:30;;;;;;;7.65;2.83;;;;;;;;;;5048212;28;20052;-74
2023/05/31 04:41:00;;;;;;;4.93;2.90;;;;;;;;;;5048411;28;20040;-75
2023/05/31 04:43:25;;;;;;;5.17;2.83;;;;;;;;;;5048628;28;20048;-74
2023/05/31 04:45:52;;;;;;;9.10;2.88;;;;;;;;;;5048382;28;20337;-74
2023/05/31 04:48:19;;;;;;;6.07;3.08;;;;;;;;;;5048898;28;20040;-74
2023/05/31 04:50:46;;;;;;;5.78;3.00;;;;;;;;;;5048263;28;20108;-74
2023/05/31 04:53:11;;;;;;;8.23;2.83;;;;;;;;;;5048111;28;20037;-74
2023/05/31 04:55:37;;;;;;;4.72;2.67;;;;;;;;;;5048668;28;20033;-74
2023/05/31 04:58:02;;;;;;;5.65;2.67;;;;;;;;;;5047218;28;20406;-74
2023/05/31 05:00:28;;;;;;;4.82;2.35;;;;;;;;;;5048231;28;20056;-74
2023/05/31 05:02:53;;;;;;;8.35;3.22;;;;;;;;;;5046245;28;20041;-74
2023/05/31 05:05:19;;;;;;;4.70;2.80;;;;;;;;;;5048462;28;20055;-74
2023/05/31 05:07:44;;;;;;;6.78;2.72;;;;;;;;;;5048225;28;20078;-74
2023/05/31 05:10:10;;;;;;;5.38;2.50;;;;;;;;;;5048327;28;20028;-74
2023/05/31 05:12:35;;;;;;;4.90;3.08;;;;;;;;;;5048283;28;20017;-74
2023/05/31 05:15:01;;;;;;;4.60;2.50;;;;;;;;;;5046835;28;20096;-74
2023/05/31 05:17:26;;;;;;;5.28;2.65;;;;;;;;;;5052274;28;20104;-74
2023/05/31 05:19:52;;;;;;;5.43;2.58;;;;;;;;;;5052135;28;20041;-74
2023/05/31 05:22:17;;;;;;;5.68;2.70;;;;;;;;;;5051966;28;20017;-74
2023/05/31 05:24:42;;;;;;;6.22;2.90;;;;;;;;;;5052225;28;20033;-74
2023/05/31 05:27:08;;;;;;;7.53;2.95;;;;;;;;;;5052227;28;20657;-74
2023/05/31 05:29:33;;;;;;;4.25;2.65;;;;;;;;;;5052125;28;20079;-74
2023/05/31 05:31:59;;;;;;;4.97;2.65;;;;;;;;;;5051580;28;20033;-74
2023/05/31 05:34:24;;;;;;;6.43;2.92;;;;;;;;;;5051883;28;20078;-75
2023/05/31 05:36:52;;;;;;;9.32;2.78;;;;;;;;;;5051240;28;20079;-74
2023/05/31 05:39:18;;;;;;;5.93;2.35;;;;;;;;;;5050232;28;20037;-75
2023/05/31 05:41:43;;;;;;;7.63;2.80;;;;;;;;;;5050171;28;20024;-74
2023/05/31 05:44:09;;;;;;;5.75;2.80;;;;;;;;;;5051736;28;20027;-74
2023/05/31 05:46:34;;;;;;;9.02;2.63;;;;;;;;;;5051657;28;20040;-74
2023/05/31 05:49:00;;;;;;;8.80;2.80;;;;;;;;;;5051741;28;20021;-74
2023/05/31 05:51:27;;;;;;;5.30;3.20;;;;;;;;;;5051068;28;20021;-74
2023/05/31 05:53:52;;;;;;;5.78;2.97;;;;;;;;;;5051254;28;20039;-74
2023/05/31 05:56:18;;;;;;;7.15;2.97;;;;;;;;;;5051230;28;20025;-75
2023/05/31 05:58:46;;;;;;;6.30;3.22;;;;;;;;;;5051653;28;20075;-74
2023/05/31 06:01:12;;;;;;;12.10;2.78;;;;;;;;;;5051498;28;20108;-74
2023/05/31 06:03:39;;;;;;;5.88;2.90;;;;;;;;;;5054252;28;20017;-74
2023/05/31 06:06:04;;;;;;;6.72;3.08;;;;;;;;;;5069950;28;20024;-75
2023/05/31 06:08:30;;;;;;;7.20;3.00;;;;;;;;;;5070979;28;20032;-74
2023/05/31 06:10:55;;;;;;;6.68;3.25;;;;;;;;;;5071045;28;20511;-74
2023/05/31 06:13:20;;;;;;;6.13;2.67;;;;;;;;;;5070806;28;20476;-74
2023/05/31 06:15:46;;;;;;;6.88;3.20;;;;;;;;;;5070999;28;20104;-74
2023/05/31 06:18:11;;;;;;;10.95;3.80;;;;;;;;;;5071318;28;20032;-74
2023/05/31 06:20:37;;;;;;;9.82;3.47;;;;;;;;;;5071063;28;20043;-75
2023/05/31 06:23:02;;;;;;;7.70;3.58;;;;;;;;;;5070665;28;20028;-74
2023/05/31 06:25:28;;;;;;;10.00;3.70;;;;;;;;;;5070923;28;20012;-74
2023/05/31 06:27:55;;;;;;;8.70;3.63;;;;;;;;;;5070539;28;20618;-75
2023/05/31 06:30:21;;;;;;;9.98;3.88;;;;;;;;;;5070778;28;20021;-74
2023/05/31 06:32:47;;;;;;;5.82;3.60;;;;;;;;;;5070446;28;20028;-75
2023/05/31 06:35:12;;;;;;;10.23;3.80;;;;;;;;;;5070951;28;20431;-74
2023/05/31 06:37:39;;;;;;;7.57;3.40;;;;;;;;;;5070277;28;20472;-74
2023/05/31 06:40:08;;;;;;;11.27;3.55;;;;;;;;;;5070811;28;20048;-75
2023/05/31 06:42:33;;;;;;;6.53;3.80;;;;;;;;;;5070351;28;20100;-74
2023/05/31 06:44:59;;;;;;;12.10;3.60;;;;;;;;;;5070772;28;20112;-75
2023/05/31 06:47:24;;;;;;;10.15;3.88;;;;;;;;;;5070383;28;20013;-77
2023/05/31 06:49:49;;;;;;;9.27;3.80;;;;;;;;;;5070476;28;20059;-75
2023/05/31 06:52:15;;;;;;;9.73;4.13;;;;;;;;;;5069740;28;20028;-74
2023/05/31 06:54:42;;;;;;;8.38;3.83;;;;;;;;;;5070565;28;20073;-74
2023/05/31 06:57:08;;;;;;;10.00;3.70;;;;;;;;;;5070175;28;20056;-75
2023/05/31 06:59:36;;;;;;;7.70;3.78;;;;;;;;;;5070359;28;20059;-74
2023/05/31 07:02:02;;;;;;;12.25;4.03;;;;;;;;;;5070102;28;20016;-75
2023/05/31 07:04:27;;;;;;;8.40;4.20;;;;;;;;;;5069990;28;20082;-74
2023/05/31 07:06:53;;;;;;;9.32;3.75;;;;;;;;;;5069545;28;20021;-74
2023/05/31 07:09:18;;;;;;;10.40;4.10;;;;;;;;;;5068898;28;20062;-75
2023/05/31 07:11:43;;;;;;;8.07;4.53;;;;;;;;;;5069898;28;20023;-75
2023/05/31 07:14:09;;;;;;;9.10;4.22;;;;;;;;;;5069968;28;20029;-74
2023/05/31 07:16:35;;;;;;;10.40;4.38;;;;;;;;;;5069872;28;20020;-75
2023/05/31 07:19:02;;;;;;;8.73;5.00;;;;;;;;;;5070011;28;20037;-74
2023/05/31 07:21:27;;;;;;;9.80;4.50;;;;;;;;;;5069241;28;20047;-75
2023/05/31 07:23:54;;;;;;;9.77;5.20;;;;;;;;;;5069509;28;20024;-74
2023/05/31 07:26:20;;;;;;;10.90;5.53;;;;;;;;;;5069596;28;20016;-75
2023/05/31 07:28:45;;;;;;;10.13;5.63;;;;;;;;;;5069828;28;20474;-75
2023/05/31 07:31:12;;;;;;;10.85;5.43;;;;;;;;;;5069497;28;20046;-75
2023/05/31 07:33:38;;;;;;;12.07;5.70;;;;;;;;;;5069543;28;20056;-77
2023/05/31 07:36:04;;;;;;;15.27;5.50;;;;;;;;;;5069564;28;20593;-74
2023/05/31 07:38:30;;;;;;;11.13;5.55;;;;;;;;;;5068449;28;20108;-75
2023/05/31 07:40:55;;;;;;;12.32;5.38;;;;;;;;;;5069529;28;20031;-75
2023/05/31 07:43:21;;;;;;;10.95;5.65;;;;;;;;;;5067700;28;20034;-75
2023/05/31 07:45:49;;;;;;;13.95;5.80;;;;;;;;;;5069495;28;20050;-75
2023/05/31 07:48:16;;;;;;;10.32;6.07;;;;;;;;;;5069355;28;20043;-75
2023/05/31 07:50:42;;;;;;;11.05;5.90;;;;;;;;;;5069412;28;20468;-75
2023/05/31 07:53:07;;;;;;;20.67;6.53;;;;;;;;;;5068651;28;20029;-75
2023/05/31 07:55:32;;;;;;;11.90;6.70;;;;;;;;;;5069246;28;20067;-74
2023/05/31 07:57:58;;;;;;;12.25;5.70;;;;;;;;;;5068853;28;20029;-75
2023/05/31 08:00:24;;;;;;;12.65;5.63;;;;;;;;;;5069231;28;20468;-75
2023/05/31 08:02:49;;;;;;;13.45;5.70;;;;;;;;;;5068905;28;20043;-75
2023/05/31 08:05:15;;;;;;;11.25;6.13;;;;;;;;;;5069299;28;20024;-75
2023/05/31 08:07:40;;;;;;;10.88;6.15;;;;;;;;;;5068578;28;20027;-75
2023/05/31 08:10:06;;;;;;;8.98;6.00;;;;;;;;;;5069134;28;20047;-75
2023/05/31 08:12:32;;;;;;;13.55;6.18;;;;;;;;;;5068891;28;20149;-75
2023/05/31 08:14:57;;;;;;;11.27;6.43;;;;;;;;;;5068843;28;20081;-75
2023/05/31 08:17:22;;;;;;;10.93;6.63;;;;;;;;;;5068789;28;20113;-75
2023/05/31 08:19:48;;;;;;;12.43;6.85;;;;;;;;;;5068976;28;20025;-74
2023/05/31 08:22:13;;;;;;;14.50;6.25;;;;;;;;;;5068228;28;20029;-74
2023/05/31 08:24:39;;;;;;;13.93;6.68;;;;;;;;;;5068857;28;20048;-74
2023/05/31 08:27:05;;;;;;;12.50;6.90;;;;;;;;;;5068860;28;20024;-74
2023/05/31 08:29:30;;;;;;;14.80;6.95;;;;;;;;;;5068870;28;20391;-74
2023/05/31 08:31:56;;;;;;;11.52;7.25;;;;;;;;;;5068797;28;20111;-74
2023/05/31 08:34:21;;;;;;;14.38;7.22;;;;;;;;;;5068403;28;20040;-75
2023/05/31 08:36:47;;;;;;;13.88;7.35;;;;;;;;;;5068359;28;20060;-74
2023/05/31 08:39:13;;;;;;;15.15;7.50;;;;;;;;;;5068527;28;20814;-74
2023/05/31 08:41:49;;;;;;;14.05;6.93;;;;;;;;;;5068918;28;20062;-75
2023/05/31 08:44:16;;;;;;;15.57;7.90;;;;;;;;;;5068780;28;20032;-74
2023/05/31 08:46:45;;;;;;;13.38;7.97;;;;;;;;;;5068899;28;20048;-75
2023/05/31 08:49:11;;;;;;;13.15;6.97;;;;;;;;;;5068522;28;20024;-74
2023/05/31 08:51:37;;;;;;;11.23;7.15;;;;;;;;;;5070782;28;20111;-75
2023/05/31 08:54:04;;;;;;;12.55;7.43;;;;;;;;;;5072321;28;20029;-75
2023/05/31 08:56:31;;;;;;;15.32;7.88;;;;;;;;;;5072718;28;20078;-75
2023/05/31 08:58:57;;;;;;;17.48;7.18;;;;;;;;;;5072469;28;20028;-74
2023/05/31 09:01:23;;;;;;;14.38;7.70;;;;;;;;;;5072884;28;20051;-74
2023/05/31 09:03:52;;;;;;;14.32;8.02;;;;;;;;;;5072166;28;20040;-74
2023/05/31 09:06:18;;;;;;;14.00;8.05;;;;;;;;;;5072319;28;20484;-74
2023/05/31 09:08:43;;;;;;;12.55;7.95;;;;;;;;;;5072219;28;20025;-74
2023/05/31 09:11:09;;;;;;;13.93;8.10;;;;;;;;;;5072318;28;20040;-74
2023/05/31 09:13:34;;;;;;;15.75;8.18;;;;;;;;;;5071925;28;20700;-74
2023/05/31 09:16:01;;;;;;;16.10;8.40;;;;;;;;;;5072496;28;20056;-75
2023/05/31 09:18:31;;;;;;;14.48;8.20;;;;;;;;;;5072216;28;20025;-75
2023/05/31 09:20:58;;;;;;;14.70;8.32;;;;;;;;;;5072480;28;20380;-74
2023/05/31 09:23:23;;;;;;;13.73;7.95;;;;;;;;;;5071430;28;20031;-75
2023/05/31 09:25:52;;;;;;;15.63;8.23;;;;;;;;;;5072105;28;20397;-76
2023/05/31 09:28:20;;;;;;;15.90;7.45;;;;;;;;;;5072101;28;20020;-75
2023/05/31 09:30:46;;;;;;;16.00;8.45;;;;;;;;;;5072076;28;20040;-75
2023/05/31 09:33:13;;;;;;;14.48;7.90;;;;;;;;;;5071601;28;20024;-74
2023/05/31 09:35:56;;;;;;;14.98;8.00;;;;;;;;;;5070576;28;20037;-74
2023/05/31 09:38:31;;;;;;;14.40;7.47;;;;;;;;;;5071226;28;20071;-75
2023/05/31 09:40:57;;;;;;;16.08;7.82;;;;;;;;;;5072012;28;20150;-75
2023/05/31 09:43:22;;;;;;;14.90;7.70;;;;;;;;;;5071468;28;20095;-74
2023/05/31 09:45:47;;;;;;;14.43;8.07;;;;;;;;;;5071472;28;20032;-74
2023/05/31 09:48:13;;;;;;;15.27;7.57;;;;;;;;;;5071445;28;20103;-74
2023/05/31 09:50:39;;;;;;;13.93;7.43;;;;;;;;;;5071712;28;20024;-74
2023/05/31 09:53:04;;;;;;;15.40;8.15;;;;;;;;;;5071014;28;20559;-74
2023/05/31 09:55:42;;;;;;;14.30;7.93;;;;;;;;;;5070335;28;20032;-74
2023/05/31 09:58:07;;;;;;;13.50;7.45;;;;;;;;;;5071340;28;20024;-74
2023/05/31 10:00:33;;;;;;;18.50;7.80;;;;;;;;;;5071571;28;20029;-75
2023/05/31 10:02:59;;;;;;;13.50;7.68;;;;;;;;;;5070671;28;20103;-75
2023/05/31 10:05:25;;;;;;;15.13;8.27;;;;;;;;;;5071012;28;20028;-77
2023/05/31 10:07:52;;;;;;;14.00;7.63;;;;;;;;;;5070804;28;20031;-74
2023/05/31 10:10:20;;;;;;;15.18;8.00;;;;;;;;;;5071206;28;20534;-74
2023/05/31 10:12:57;;;;;;;11.45;7.30;;;;;;;;;;5069927;28;20028;-74
2023/05/31 10:15:24;;;;;;;12.20;7.25;;;;;;;;;;5071028;28;20027;-74
2023/05/31 10:18:08;;;;;;;15.88;7.68;;;;;;;;;;5070999;28;20039;-74
2023/05/31 10:20:36;;;;;;;12.35;7.30;;;;;;;;;;5071029;28;20104;-74
2023/05/31 10:23:07;;;;;;;11.85;7.30;;;;;;;;;;5070385;28;20029;-74
2023/05/31 10:25:46;;;;;;;12.48;7.50;;;;;;;;;;5070699;28;20683;-74
2023/05/31 10:28:17;;;;;;;12.52;7.00;;;;;;;;;;5070720;28;20025;-74
2023/05/31 10:30:45;;;;;;;13.18;7.07;;;;;;;;;;5071052;28;20035;-75
2023/05/31 10:33:14;;;;;;;13.60;7.47;;;;;;;;;;5070526;28;20024;-74
2023/05/31 10:35:40;;;;;;;12.70;7.65;;;;;;;;;;5070654;28;20468;-74
2023/05/31 10:38:06;;;;;;;9.75;6.85;;;;;;;;;;5070087;28;20055;-74
2023/05/31 10:41:00;;;;;;;11.57;6.20;;;;;;;;;;5070406;28;20430;-75
2023/05/31 10:44:06;;;;;;;13.23;7.07;;;;;;;;;;5070439;28;20025;-74
2023/05/31 10:46:35;;;;;;;13.93;6.93;;;;;;;;;;5031003;28;20033;-74
2023/05/31 10:49:03;;;;;;;11.23;6.43;;;;;;;;;;5066851;28;20044;-74
2023/05/31 10:51:45;;;;;;;9.65;5.72;;;;;;;;;;5070134;28;20332;-76
2023/05/31 10:54:25;;;;;;;13.63;6.05;;;;;;;;;;5069851;28;20059;-76
2023/05/31 10:57:03;;;;;;;11.63;6.43;;;;;;;;;;5070385;28;20553;-76
2023/05/31 10:59:38;;;;;;;12.95;6.57;;;;;;;;;;5069925;28;20020;-77
2023/05/31 11:02:05;;;;;;;12.88;7.18;;;;;;;;;;5070454;28;20101;-75
2023/05/31 11:04:31;;;;;;;10.60;6.38;;;;;;;;;;5069848;28;20096;-74
2023/05/31 11:07:21;;;;;;;15.25;6.50;;;;;;;;;;5069838;28;20108;-74
2023/05/31 11:09:58;;;;;;;14.18;6.10;;;;;;;;;;5069922;28;20074;-75
2023/05/31 11:12:35;;;;;;;11.15;6.07;;;;;;;;;;5069819;28;20028;-74
2023/05/31 11:15:04;;;;;;;12.20;5.97;;;;;;;;;;5069015;28;20036;-74
2023/05/31 11:17:39;;;;;;;9.60;6.05;;;;;;;;;;5069731;28;20546;-74
2023/05/31 11:20:05;;;;;;;9.85;5.97;;;;;;;;;;5069681;28;20056;-74
2023/05/31 11:22:31;;;;;;;10.43;6.47;;;;;;;;;;5069544;28;20041;-74
2023/05/31 11:25:00;;;;;;;11.07;6.40;;;;;;;;;;5069319;28;20395;-75
2023/05/31 11:27:37;;;;;;;11.70;5.85;;;;;;;;;;5069837;28;20150;-75
2023/05/31 11:30:22;;;;;;;10.13;6.15;;;;;;;;;;5069277;28;20024;-74
2023/05/31 11:32:54;;;;;;;9.85;6.43;;;;;;;;;;5069046;28;20032;-74
2023/05/31 11:35:20;;;;;;;12.43;6.18;;;;;;;;;;5067809;28;20059;-74
2023/05/31 11:37:46;;;;;;;10.80;6.40;;;;;;;;;;5069212;28;20031;-75
2023/05/31 11:40:13;;;;;;;9.63;6.03;;;;;;;;;;5069255;28;20033;-74
2023/05/31 11:42:43;;;;;;;9.88;6.20;;;;;;;;;;5069816;28;20024;-74
2023/05/31 11:45:13;;;;;;;8.98;5.30;;;;;;;;;;5069016;28;20412;-74
2023/05/31 11:48:05;;;;;;;8.82;5.47;;;;;;;;;;5069606;28;20046;-75
2023/05/31 11:50:31;;;;;;;10.13;5.38;;;;;;;;;;5068829;28;20032;-74
2023/05/31 11:52:58;;;;;;;9.02;5.70;;;;;;;;;;5068805;28;20020;-74
2023/05/31 11:55:30;;;;;;;9.55;5.60;;;;;;;;;;5068788;28;20021;-74
2023/05/31 11:57:56;;;;;;;10.55;5.50;;;;;;;;;;5068082;28;20597;-74
2023/05/31 12:00:24;;;;;;;11.75;5.32;;;;;;;;;;5069096;28;20166;-74
2023/05/31 12:02:56;;;;;;;10.05;5.32;;;;;;;;;;5069290;28;20028;-74
2023/05/31 12:05:22;;;;;;;9.98;5.35;;;;;;;;;;5068508;28;20025;-75
2023/05/31 12:07:47;;;;;;;9.73;5.32;;;;;;;;;;5068632;28;20035;-74
2023/05/31 12:10:13;;;;;;;10.02;4.75;;;;;;;;;;5068844;28;20385;-74
2023/05/31 12:12:40;;;;;;;8.05;4.65;;;;;;;;;;5068851;28;20095;-74
2023/05/31 12:15:06;;;;;;;8.48;4.78;;;;;;;;;;5068676;28;20102;-74
2023/05/31 12:17:32;;;;;;;9.88;4.75;;;;;;;;;;5069153;28;20074;-77
2023/05/31 12:19:58;;;;;;;10.02;4.57;;;;;;;;;;5068761;28;20511;-74
2023/05/31 12:22:26;;;;;;;9.57;5.10;;;;;;;;;;5068510;28;20025;-74
2023/05/31 12:24:58;;;;;;;9.00;5.10;;;;;;;;;;5068082;28;20576;-74
2023/05/31 12:27:29;;;;;;;9.65;4.90;;;;;;;;;;5068780;28;20032;-75
2023/05/31 12:29:55;;;;;;;7.85;5.00;;;;;;;;;;5068586;28;20024;-75
2023/05/31 12:32:21;;;;;;;12.20;4.80;;;;;;;;;;5069070;28;20544;-75
2023/05/31 12:34:49;;;;;;;8.93;4.78;;;;;;;;;;5068719;28;20121;-74
2023/05/31 12:37:14;;;;;;;10.40;5.13;;;;;;;;;;5068367;28;20025;-74
2023/05/31 12:39:40;;;;;;;7.57;4.63;;;;;;;;;;5068601;28;20518;-74
2023/05/31 12:42:06;;;;;;;9.32;4.97;;;;;;;;;;5068856;28;20020;-74
2023/05/31 12:44:33;;;;;;;7.78;4.85;;;;;;;;;;5068571;28;20090;-74
2023/05/31 12:47:01;;;;;;;11.18;4.90;;;;;;;;;;5068392;28;20024;-74
2023/05/31 12:49:32;;;;;;;7.82;5.13;;;;;;;;;;5068680;28;20130;-74
2023/05/31 12:52:05;;;;;;;8.45;4.53;;;;;;;;;;5068053;28;20107;-74
2023/05/31 12:54:38;;;;;;;8.80;4.65;;;;;;;;;;5068596;28;20032;-74
2023/05/31 12:57:09;;;;;;;7.65;4.60;;;;;;;;;;5068342;28;20028;-74
2023/05/31 12:59:35;;;;;;;7.53;4.82;;;;;;;;;;5068577;28;20087;-74
2023/05/31 13:02:02;;;;;;;8.70;4.80;;;;;;;;;;5068382;28;20036;-74
2023/05/31 13:04:28;;;;;;;9.48;4.80;;;;;;;;;;5068332;28;20078;-74
2023/05/31 13:06:57;;;;;;;11.85;4.78;;;;;;;;;;5066380;28;20687;-73
2023/05/31 13:09:22;;;;;;;9.07;4.38;;;;;;;;;;5068751;28;20499;-73
2023/05/31 13:11:50;;;;;;;9.40;4.32;;;;;;;;;;5068080;28;20021;-73
2023/05/31 13:14:16;;;;;;;9.07;3.85;;;;;;;;;;5068441;28;20400;-74
2023/05/31 13:16:42;;;;;;;10.52;3.58;;;;;;;;;;5068059;28;20362;-74
2023/05/31 13:19:08;;;;;;;10.05;3.25;;;;;;;;;;5068280;28;20024;-74
2023/05/31 13:21:37;;;;;;;9.93;2.92;;;;;;;;;;5067667;28;20020;-74
2023/05/31 13:24:04;;;;;;;7.38;2.30;;;;;;;;;;5068383;28;20025;-74
2023/05/31 13:26:30;;;;;;;5.03;2.15;;;;;;;;;;5067999;28;20092;-74
2023/05/31 13:28:57;;;;;;;6.05;2.03;;;;;;;;;;5068490;28;20115;-74
2023/05/31 13:31:24;;;;;;;8.13;2.35;;;;;;;;;;5068176;28;20070;-74
2023/05/31 13:33:50;;;;;;;3.95;2.10;;;;;;;;;;5068261;28;20036;-75
2023/05/31 13:36:16;;;;;;;3.80;1.90;;;;;;;;;;5067940;28;20028;-74
2023/05/31 13:38:42;;;;;;;7.55;2.03;;;;;;;;;;5071776;28;20037;-75
2023/05/31 13:41:08;;;;;;;3.13;1.58;;;;;;;;;;5071611;28;20029;-74
2023/05/31 13:43:33;;;;;;;8.75;2.00;;;;;;;;;;5071828;28;20035;-75
2023/05/31 13:46:00;;;;;;;3.85;1.77;;;;;;;;;;5071634;28;20048;-75
2023/05/31 13:48:26;;;;;;;2.90;1.80;;;;;;;;;;5071921;28;20027;-77
2023/05/31 13:50:52;;;;;;;3.20;1.80;;;;;;;;;;5071622;28;20495;-77
2023/05/31 13:53:18;;;;;;;6.53;1.98;;;;;;;;;;5071198;28;20029;-75
2023/05/31 13:55:45;;;;;;;2.83;1.70;;;;;;;;;;5071226;28;20044;-74
2023/05/31 13:58:11;;;;;;;4.25;2.00;;;;;;;;;;5071511;28;20615;-74
2023/05/31 14:00:36;;;;;;;9.52;2.20;;;;;;;;;;5071368;28;20051;-74
2023/05/31 14:03:02;;;;;;;5.07;2.13;;;;;;;;;;5071475;28;20079;-74
2023/05/31 14:05:28;;;;;;;3.95;1.90;;;;;;;;;;5071454;28;20025;-74
2023/05/31 14:07:54;;;;;;;4.25;1.80;;;;;;;;;;5070869;28;20024;-74
2023/05/31 14:10:20;;;;;;;3.95;2.17;;;;;;;;;;5071109;28;20035;-74
2023/05/31 14:12:47;;;;;;;4.55;2.05;;;;;;;;;;5070953;28;20702;-73
2023/05/31 14:15:13;;;;;;;3.63;1.90;;;;;;;;;;5070994;28;20032;-74
2023/05/31 14:17:39;;;;;;;5.55;1.98;;;;;;;;;;5070940;28;20025;-76
2023/05/31 14:20:05;;;;;;;3.45;1.90;;;;;;;;;;5071312;28;20039;-76
2023/05/31 14:22:31;;;;;;;6.82;2.17;;;;;;;;;;5070635;28;20028;-74
2023/05/31 14:24:57;;;;;;;3.72;1.88;;;;;;;;;;5070960;28;20040;-74
2023/05/31 14:27:22;;;;;;;3.30;1.90;;;;;;;;;;5070673;28;20039;-74
2023/05/31 14:29:48;;;;;;;5.18;2.17;;;;;;;;;;5070918;28;20028;-74
2023/05/31 14:32:14;;;;;;;2.88;1.80;;;;;;;;;;5070592;28;20024;-74
2023/05/31 14:34:40;;;;;;;4.30;1.92;;;;;;;;;;5070667;28;20036;-74
2023/05/31 14:37:06;;;;;;;3.75;1.70;;;;;;;;;;5070113;28;20519;-74
2023/05/31 14:39:31;;;;;;;2.95;1.80;;;;;;;;;;5070607;28;20040;-76